sensor_id;sensor_type;location;lat;lon;timestamp;temperature;humidity
11532;DHT22;5822;51.000;5.874;2024-03-08T00:01:35;9.20;99.90
11532;DHT22;5822;51.000;5.874;2024-03-08T00:04:01;9.20;99.90
11532;DHT22;5822;51.000;5.874;2024-03-08T00:06:27;9.20;99.90
11532;DHT22;5822;51.000;5.874;2024-03-08T00:08:52;9.20;99.90
11532;DHT22;5822;51.000;5.874;2024-03-08T00:11:18;9.10;99.90
11532;DHT22;5822;51.000;5.874;2024-03-08T00:13:44;9.10;99.90
11532;DHT22;5822;51.000;5.874;2024-03-08T00:16:10;9.10;99.90
11532;DHT22;5822;51.000;5.874;2024-03-08T00:18:36;9.00;99.90
11532;DHT22;5822;51.000;5.874;2024-03-08T00:21:02;9.00;99.90
11532;DHT22;5822;51.000;5.874;2024-03-08T00:23:27;9.00;99.90
11532;DHT22;5822;51.000;5.874;2024-03-08T00:25:53;9.00;99.90
11532;DHT22;5822;51.000;5.874;2024-03-08T00:28:21;9.00;99.90
11532;DHT22;5822;51.000;5.874;2024-03-08T00:30:47;9.00;99.90
11532;DHT22;5822;51.000;5.874;2024-03-08T00:33:12;8.90;99.90
11532;DHT22;5822;51.000;5.874;2024-03-08T00:35:38;8.90;99.90
11532;DHT22;5822;51.000;5.874;2024-03-08T00:38:04;8.90;99.90
11532;DHT22;5822;51.000;5.874;2024-03-08T00:40:30;8.90;99.90
11532;DHT22;5822;51.000;5.874;2024-03-08T00:42:56;8.80;99.90
11532;DHT22;5822;51.000;5.874;2024-03-08T00:45:21;8.80;99.90
11532;DHT22;5822;51.000;5.874;2024-03-08T00:47:48;8.70;99.90
11532;DHT22;5822;51.000;5.874;2024-03-08T00:50:14;8.80;99.90
11532;DHT22;5822;51.000;5.874;2024-03-08T00:52:40;8.80;99.90
11532;DHT22;5822;51.000;5.874;2024-03-08T00:55:06;8.80;99.90
11532;DHT22;5822;51.000;5.874;2024-03-08T00:57:33;8.70;99.90
11532;DHT22;5822;51.000;5.874;2024-03-08T00:59:59;8.80;99.90
11532;DHT22;5822;51.000;5.874;2024-03-08T01:02:24;8.70;99.90
11532;DHT22;5822;51.000;5.874;2024-03-08T01:04:50;8.70;99.90
11532;DHT22;5822;51.000;5.874;2024-03-08T01:07:16;8.70;99.90
11532;DHT22;5822;51.000;5.874;2024-03-08T01:09:41;8.70;99.90
11532;DHT22;5822;51.000;5.874;2024-03-08T01:12:07;8.60;99.90
11532;DHT22;5822;51.000;5.874;2024-03-08T01:14:33;8.70;99.90
11532;DHT22;5822;51.000;5.874;2024-03-08T01:16:59;8.60;99.90
11532;DHT22;5822;51.000;5.874;2024-03-08T01:19:25;8.60;99.90
11532;DHT22;5822;51.000;5.874;2024-03-08T01:21:50;8.60;99.90
11532;DHT22;5822;51.000;5.874;2024-03-08T01:24:16;8.60;99.90
11532;DHT22;5822;51.000;5.874;2024-03-08T01:26:42;8.60;99.90
11532;DHT22;5822;51.000;5.874;2024-03-08T01:29:08;8.60;99.90
11532;DHT22;5822;51.000;5.874;2024-03-08T01:31:33;8.60;99.90
11532;DHT22;5822;51.000;5.874;2024-03-08T01:33:59;8.60;99.90
11532;DHT22;5822;51.000;5.874;2024-03-08T01:36:25;8.60;99.90
11532;DHT22;5822;51.000;5.874;2024-03-08T01:38:51;8.60;99.90
11532;DHT22;5822;51.000;5.874;2024-03-08T01:41:17;8.50;99.90
11532;DHT22;5822;51.000;5.874;2024-03-08T01:43:43;8.50;99.90
11532;DHT22;5822;51.000;5.874;2024-03-08T01:46:12;8.50;99.90
11532;DHT22;5822;51.000;5.874;2024-03-08T01:48:40;8.40;99.90
11532;DHT22;5822;51.000;5.874;2024-03-08T01:51:07;8.40;99.90
11532;DHT22;5822;51.000;5.874;2024-03-08T01:53:33;8.40;99.90
11532;DHT22;5822;51.000;5.874;2024-03-08T01:56:00;8.40;99.90
11532;DHT22;5822;51.000;5.874;2024-03-08T01:58:28;8.40;99.90
11532;DHT22;5822;51.000;5.874;2024-03-08T02:00:54;8.30;99.90
11532;DHT22;5822;51.000;5.874;2024-03-08T02:03:21;8.30;99.90
11532;DHT22;5822;51.000;5.874;2024-03-08T02:05:48;8.40;99.90
11532;DHT22;5822;51.000;5.874;2024-03-08T02:08:14;8.30;99.90
11532;DHT22;5822;51.000;5.874;2024-03-08T02:10:41;8.30;99.90
11532;DHT22;5822;51.000;5.874;2024-03-08T02:13:07;8.30;99.90
11532;DHT22;5822;51.000;5.874;2024-03-08T02:15:53;8.20;99.90
11532;DHT22;5822;51.000;5.874;2024-03-08T02:18:19;8.20;99.90
11532;DHT22;5822;51.000;5.874;2024-03-08T02:20:53;8.20;99.90
11532;DHT22;5822;51.000;5.874;2024-03-08T02:23:21;8.20;99.90
11532;DHT22;5822;51.000;5.874;2024-03-08T02:25:48;8.20;99.90
11532;DHT22;5822;51.000;5.874;2024-03-08T02:28:14;8.20;99.90
11532;DHT22;5822;51.000;5.874;2024-03-08T02:30:41;8.20;99.90
11532;DHT22;5822;51.000;5.874;2024-03-08T02:33:07;8.20;99.90
11532;DHT22;5822;51.000;5.874;2024-03-08T02:35:35;8.20;99.90
11532;DHT22;5822;51.000;5.874;2024-03-08T02:38:02;8.20;99.90
11532;DHT22;5822;51.000;5.874;2024-03-08T02:40:29;8.20;99.90
11532;DHT22;5822;51.000;5.874;2024-03-08T02:42:55;8.20;99.90
11532;DHT22;5822;51.000;5.874;2024-03-08T02:45:20;8.20;99.90
11532;DHT22;5822;51.000;5.874;2024-03-08T02:47:46;8.20;99.90
11532;DHT22;5822;51.000;5.874;2024-03-08T02:50:12;8.20;99.90
11532;DHT22;5822;51.000;5.874;2024-03-08T02:52:44;8.20;99.90
11532;DHT22;5822;51.000;5.874;2024-03-08T02:55:12;8.20;99.90
11532;DHT22;5822;51.000;5.874;2024-03-08T02:57:40;8.20;99.90
11532;DHT22;5822;51.000;5.874;2024-03-08T03:00:07;8.20;99.90
11532;DHT22;5822;51.000;5.874;2024-03-08T03:02:34;8.10;99.90
11532;DHT22;5822;51.000;5.874;2024-03-08T03:05:00;8.10;99.90
11532;DHT22;5822;51.000;5.874;2024-03-08T03:07:31;8.10;99.90
11532;DHT22;5822;51.000;5.874;2024-03-08T03:09:57;8.10;99.90
11532;DHT22;5822;51.000;5.874;2024-03-08T03:12:22;8.10;99.90
11532;DHT22;5822;51.000;5.874;2024-03-08T03:14:48;8.10;99.90
11532;DHT22;5822;51.000;5.874;2024-03-08T03:17:13;8.10;99.90
11532;DHT22;5822;51.000;5.874;2024-03-08T03:19:42;8.10;99.90
11532;DHT22;5822;51.000;5.874;2024-03-08T03:22:08;8.00;99.90
11532;DHT22;5822;51.000;5.874;2024-03-08T03:24:36;8.00;99.90
11532;DHT22;5822;51.000;5.874;2024-03-08T03:27:04;7.90;99.90
11532;DHT22;5822;51.000;5.874;2024-03-08T03:29:37;7.90;99.90
11532;DHT22;5822;51.000;5.874;2024-03-08T03:32:03;7.90;99.90
11532;DHT22;5822;51.000;5.874;2024-03-08T03:34:29;7.90;99.90
11532;DHT22;5822;51.000;5.874;2024-03-08T03:36:55;7.90;99.90
11532;DHT22;5822;51.000;5.874;2024-03-08T03:39:21;7.90;99.90
11532;DHT22;5822;51.000;5.874;2024-03-08T03:41:48;7.90;99.90
11532;DHT22;5822;51.000;5.874;2024-03-08T03:44:17;7.90;99.90
11532;DHT22;5822;51.000;5.874;2024-03-08T03:46:43;7.90;99.90
11532;DHT22;5822;51.000;5.874;2024-03-08T03:49:12;7.90;99.90
11532;DHT22;5822;51.000;5.874;2024-03-08T03:51:38;7.80;99.90
11532;DHT22;5822;51.000;5.874;2024-03-08T03:54:04;7.90;99.90
11532;DHT22;5822;51.000;5.874;2024-03-08T03:56:30;7.80;99.90
11532;DHT22;5822;51.000;5.874;2024-03-08T03:58:56;7.90;99.90
11532;DHT22;5822;51.000;5.874;2024-03-08T04:01:22;7.80;99.90
11532;DHT22;5822;51.000;5.874;2024-03-08T04:03:47;7.80;99.90
11532;DHT22;5822;51.000;5.874;2024-03-08T04:06:13;7.90;99.90
11532;DHT22;5822;51.000;5.874;2024-03-08T04:08:39;7.90;99.90
11532;DHT22;5822;51.000;5.874;2024-03-08T04:11:05;7.90;99.90
11532;DHT22;5822;51.000;5.874;2024-03-08T04:13:31;7.90;99.90
11532;DHT22;5822;51.000;5.874;2024-03-08T04:15:56;7.90;99.90
11532;DHT22;5822;51.000;5.874;2024-03-08T04:18:22;7.90;99.90
11532;DHT22;5822;51.000;5.874;2024-03-08T04:20:48;7.90;99.90
11532;DHT22;5822;51.000;5.874;2024-03-08T04:23:14;7.80;99.90
11532;DHT22;5822;51.000;5.874;2024-03-08T04:25:39;7.80;99.90
11532;DHT22;5822;51.000;5.874;2024-03-08T04:28:08;7.80;99.90
11532;DHT22;5822;51.000;5.874;2024-03-08T04:30:39;7.80;99.90
11532;DHT22;5822;51.000;5.874;2024-03-08T04:33:05;7.80;99.90
11532;DHT22;5822;51.000;5.874;2024-03-08T04:35:35;7.80;99.90
11532;DHT22;5822;51.000;5.874;2024-03-08T04:38:00;7.70;99.90
11532;DHT22;5822;51.000;5.874;2024-03-08T04:40:26;7.70;99.90
11532;DHT22;5822;51.000;5.874;2024-03-08T04:42:52;7.70;99.90
11532;DHT22;5822;51.000;5.874;2024-03-08T04:45:18;7.70;99.90
11532;DHT22;5822;51.000;5.874;2024-03-08T04:47:44;7.70;99.90
11532;DHT22;5822;51.000;5.874;2024-03-08T04:50:09;7.60;99.90
11532;DHT22;5822;51.000;5.874;2024-03-08T04:52:35;7.70;99.90
11532;DHT22;5822;51.000;5.874;2024-03-08T04:55:01;7.70;99.90
11532;DHT22;5822;51.000;5.874;2024-03-08T04:57:30;7.70;99.90
11532;DHT22;5822;51.000;5.874;2024-03-08T04:59:56;7.70;99.90
11532;DHT22;5822;51.000;5.874;2024-03-08T05:02:23;7.70;99.90
11532;DHT22;5822;51.000;5.874;2024-03-08T05:04:49;7.70;99.90
11532;DHT22;5822;51.000;5.874;2024-03-08T05:07:14;7.70;99.90
11532;DHT22;5822;51.000;5.874;2024-03-08T05:09:40;7.70;99.90
11532;DHT22;5822;51.000;5.874;2024-03-08T05:12:07;7.60;99.90
11532;DHT22;5822;51.000;5.874;2024-03-08T05:14:33;7.60;99.90
11532;DHT22;5822;51.000;5.874;2024-03-08T05:17:00;7.60;99.90
11532;DHT22;5822;51.000;5.874;2024-03-08T05:19:26;7.60;99.90
11532;DHT22;5822;51.000;5.874;2024-03-08T05:21:52;7.60;99.90
11532;DHT22;5822;51.000;5.874;2024-03-08T05:24:18;7.60;99.90
11532;DHT22;5822;51.000;5.874;2024-03-08T05:26:44;7.60;99.90
11532;DHT22;5822;51.000;5.874;2024-03-08T05:29:10;7.50;99.90
11532;DHT22;5822;51.000;5.874;2024-03-08T05:31:49;7.50;99.90
11532;DHT22;5822;51.000;5.874;2024-03-08T05:34:15;7.50;99.90
11532;DHT22;5822;51.000;5.874;2024-03-08T05:36:42;7.50;99.90
11532;DHT22;5822;51.000;5.874;2024-03-08T05:39:12;7.50;99.90
11532;DHT22;5822;51.000;5.874;2024-03-08T05:41:39;7.50;99.90
11532;DHT22;5822;51.000;5.874;2024-03-08T05:44:04;7.50;99.90
11532;DHT22;5822;51.000;5.874;2024-03-08T05:46:30;7.50;99.90
11532;DHT22;5822;51.000;5.874;2024-03-08T05:48:56;7.50;99.90
11532;DHT22;5822;51.000;5.874;2024-03-08T05:51:24;7.40;99.90
11532;DHT22;5822;51.000;5.874;2024-03-08T05:53:50;7.40;99.90
11532;DHT22;5822;51.000;5.874;2024-03-08T05:56:19;7.40;99.90
11532;DHT22;5822;51.000;5.874;2024-03-08T05:58:44;7.40;99.90
11532;DHT22;5822;51.000;5.874;2024-03-08T06:01:11;7.40;99.90
11532;DHT22;5822;51.000;5.874;2024-03-08T06:03:38;7.30;99.90
11532;DHT22;5822;51.000;5.874;2024-03-08T06:06:13;7.40;99.90
11532;DHT22;5822;51.000;5.874;2024-03-08T06:08:39;7.30;99.90
11532;DHT22;5822;51.000;5.874;2024-03-08T06:11:05;7.30;99.90
11532;DHT22;5822;51.000;5.874;2024-03-08T06:13:35;7.30;99.90
11532;DHT22;5822;51.000;5.874;2024-03-08T06:16:01;7.30;99.90
11532;DHT22;5822;51.000;5.874;2024-03-08T06:18:32;7.30;99.90
11532;DHT22;5822;51.000;5.874;2024-03-08T06:20:58;7.30;99.90
11532;DHT22;5822;51.000;5.874;2024-03-08T06:23:24;7.30;99.90
11532;DHT22;5822;51.000;5.874;2024-03-08T06:25:49;7.30;99.90
11532;DHT22;5822;51.000;5.874;2024-03-08T06:28:15;7.40;99.90
11532;DHT22;5822;51.000;5.874;2024-03-08T06:30:42;7.40;99.90
11532;DHT22;5822;51.000;5.874;2024-03-08T06:33:08;7.30;99.90
11532;DHT22;5822;51.000;5.874;2024-03-08T06:35:34;7.30;99.90
11532;DHT22;5822;51.000;5.874;2024-03-08T06:38:03;7.40;99.90
11532;DHT22;5822;51.000;5.874;2024-03-08T06:40:29;7.40;99.90
11532;DHT22;5822;51.000;5.874;2024-03-08T06:42:55;7.50;99.90
11532;DHT22;5822;51.000;5.874;2024-03-08T06:45:20;7.50;99.90
11532;DHT22;5822;51.000;5.874;2024-03-08T06:47:47;7.50;99.90
11532;DHT22;5822;51.000;5.874;2024-03-08T06:50:13;7.50;99.90
11532;DHT22;5822;51.000;5.874;2024-03-08T06:52:41;7.60;99.90
11532;DHT22;5822;51.000;5.874;2024-03-08T06:55:08;7.60;99.90
11532;DHT22;5822;51.000;5.874;2024-03-08T06:57:39;7.60;99.90
11532;DHT22;5822;51.000;5.874;2024-03-08T07:00:07;7.60;99.90
11532;DHT22;5822;51.000;5.874;2024-03-08T07:02:35;7.60;99.90
11532;DHT22;5822;51.000;5.874;2024-03-08T07:05:01;7.70;99.90
11532;DHT22;5822;51.000;5.874;2024-03-08T07:07:28;7.60;99.90
11532;DHT22;5822;51.000;5.874;2024-03-08T07:09:55;7.60;99.90
11532;DHT22;5822;51.000;5.874;2024-03-08T07:12:22;7.60;99.90
11532;DHT22;5822;51.000;5.874;2024-03-08T07:14:49;7.70;99.90
11532;DHT22;5822;51.000;5.874;2024-03-08T07:17:14;7.60;99.90
11532;DHT22;5822;51.000;5.874;2024-03-08T07:19:42;7.70;99.90
11532;DHT22;5822;51.000;5.874;2024-03-08T07:22:07;7.80;99.90
11532;DHT22;5822;51.000;5.874;2024-03-08T07:24:36;7.90;99.90
11532;DHT22;5822;51.000;5.874;2024-03-08T07:27:04;7.90;99.90
11532;DHT22;5822;51.000;5.874;2024-03-08T07:29:31;8.00;99.90
11532;DHT22;5822;51.000;5.874;2024-03-08T07:31:57;8.00;99.90
11532;DHT22;5822;51.000;5.874;2024-03-08T07:34:58;8.00;99.90
11532;DHT22;5822;51.000;5.874;2024-03-08T07:37:24;8.10;99.90
11532;DHT22;5822;51.000;5.874;2024-03-08T07:39:49;8.20;99.90
11532;DHT22;5822;51.000;5.874;2024-03-08T07:42:15;8.20;99.90
11532;DHT22;5822;51.000;5.874;2024-03-08T07:44:42;8.20;99.90
11532;DHT22;5822;51.000;5.874;2024-03-08T07:47:08;8.40;99.90
11532;DHT22;5822;51.000;5.874;2024-03-08T07:49:35;8.40;99.90
11532;DHT22;5822;51.000;5.874;2024-03-08T07:52:03;8.50;99.90
11532;DHT22;5822;51.000;5.874;2024-03-08T07:54:30;8.50;99.90
11532;DHT22;5822;51.000;5.874;2024-03-08T07:56:56;8.30;99.90
11532;DHT22;5822;51.000;5.874;2024-03-08T07:59:21;8.40;99.90
11532;DHT22;5822;51.000;5.874;2024-03-08T08:01:47;8.40;99.90
11532;DHT22;5822;51.000;5.874;2024-03-08T08:04:13;8.50;99.90
11532;DHT22;5822;51.000;5.874;2024-03-08T08:06:40;8.80;99.90
11532;DHT22;5822;51.000;5.874;2024-03-08T08:09:08;8.80;99.90
11532;DHT22;5822;51.000;5.874;2024-03-08T08:11:40;8.90;99.90
11532;DHT22;5822;51.000;5.874;2024-03-08T08:14:11;8.90;99.90
11532;DHT22;5822;51.000;5.874;2024-03-08T08:16:37;9.00;99.90
11532;DHT22;5822;51.000;5.874;2024-03-08T08:19:03;9.20;99.90
11532;DHT22;5822;51.000;5.874;2024-03-08T08:21:34;9.30;99.90
11532;DHT22;5822;51.000;5.874;2024-03-08T08:24:05;9.50;99.90
11532;DHT22;5822;51.000;5.874;2024-03-08T08:26:31;9.50;99.90
11532;DHT22;5822;51.000;5.874;2024-03-08T08:28:58;9.40;99.90
11532;DHT22;5822;51.000;5.874;2024-03-08T08:31:25;9.30;99.90
11532;DHT22;5822;51.000;5.874;2024-03-08T08:33:50;9.20;99.90
11532;DHT22;5822;51.000;5.874;2024-03-08T08:36:19;9.20;99.90
11532;DHT22;5822;51.000;5.874;2024-03-08T08:38:45;9.20;99.90
11532;DHT22;5822;51.000;5.874;2024-03-08T08:41:11;9.20;99.90
11532;DHT22;5822;51.000;5.874;2024-03-08T08:43:36;9.20;99.90
11532;DHT22;5822;51.000;5.874;2024-03-08T08:46:02;9.20;99.90
11532;DHT22;5822;51.000;5.874;2024-03-08T08:48:28;9.20;99.90
11532;DHT22;5822;51.000;5.874;2024-03-08T08:50:56;9.20;99.90
11532;DHT22;5822;51.000;5.874;2024-03-08T08:53:22;9.20;99.90
11532;DHT22;5822;51.000;5.874;2024-03-08T08:55:48;9.30;99.90
11532;DHT22;5822;51.000;5.874;2024-03-08T08:58:13;9.30;99.90
11532;DHT22;5822;51.000;5.874;2024-03-08T09:00:39;9.50;99.90
11532;DHT22;5822;51.000;5.874;2024-03-08T09:03:05;9.40;99.90
11532;DHT22;5822;51.000;5.874;2024-03-08T09:05:32;9.50;99.90
11532;DHT22;5822;51.000;5.874;2024-03-08T09:07:59;9.60;99.90
11532;DHT22;5822;51.000;5.874;2024-03-08T09:10:25;9.70;99.90
11532;DHT22;5822;51.000;5.874;2024-03-08T09:12:51;9.80;99.90
11532;DHT22;5822;51.000;5.874;2024-03-08T09:15:17;9.80;99.90
11532;DHT22;5822;51.000;5.874;2024-03-08T09:27:41;10.30;99.90
11532;DHT22;5822;51.000;5.874;2024-03-08T09:30:07;10.30;99.90
11532;DHT22;5822;51.000;5.874;2024-03-08T09:32:33;10.10;99.90
11532;DHT22;5822;51.000;5.874;2024-03-08T09:34:59;10.20;99.90
11532;DHT22;5822;51.000;5.874;2024-03-08T09:37:26;10.10;99.90
11532;DHT22;5822;51.000;5.874;2024-03-08T09:39:52;10.20;99.90
11532;DHT22;5822;51.000;5.874;2024-03-08T09:42:18;10.10;99.90
11532;DHT22;5822;51.000;5.874;2024-03-08T09:44:45;10.10;99.90
11532;DHT22;5822;51.000;5.874;2024-03-08T09:47:13;10.10;99.90
11532;DHT22;5822;51.000;5.874;2024-03-08T09:49:40;10.10;99.90
11532;DHT22;5822;51.000;5.874;2024-03-08T09:52:09;10.10;99.90
11532;DHT22;5822;51.000;5.874;2024-03-08T09:54:36;10.20;99.90
11532;DHT22;5822;51.000;5.874;2024-03-08T09:57:04;10.30;99.90
11532;DHT22;5822;51.000;5.874;2024-03-08T09:59:30;10.50;99.90
11532;DHT22;5822;51.000;5.874;2024-03-08T10:02:01;10.60;99.90
11532;DHT22;5822;51.000;5.874;2024-03-08T10:04:29;10.50;99.90
11532;DHT22;5822;51.000;5.874;2024-03-08T10:06:58;10.50;99.90
11532;DHT22;5822;51.000;5.874;2024-03-08T10:09:25;10.60;99.90
11532;DHT22;5822;51.000;5.874;2024-03-08T10:11:56;10.60;99.90
11532;DHT22;5822;51.000;5.874;2024-03-08T10:14:24;10.60;99.90
11532;DHT22;5822;51.000;5.874;2024-03-08T10:16:52;10.60;99.90
11532;DHT22;5822;51.000;5.874;2024-03-08T10:19:18;10.60;99.90
11532;DHT22;5822;51.000;5.874;2024-03-08T10:21:50;10.60;99.90
11532;DHT22;5822;51.000;5.874;2024-03-08T10:24:17;10.70;99.90
11532;DHT22;5822;51.000;5.874;2024-03-08T10:26:43;10.70;99.90
11532;DHT22;5822;51.000;5.874;2024-03-08T10:29:09;10.70;99.90
11532;DHT22;5822;51.000;5.874;2024-03-08T10:31:35;10.80;99.90
11532;DHT22;5822;51.000;5.874;2024-03-08T10:34:01;10.80;99.90
11532;DHT22;5822;51.000;5.874;2024-03-08T10:36:28;11.00;99.90
11532;DHT22;5822;51.000;5.874;2024-03-08T10:38:56;11.00;99.90
11532;DHT22;5822;51.000;5.874;2024-03-08T10:41:24;11.00;99.90
11532;DHT22;5822;51.000;5.874;2024-03-08T10:47:00;10.90;99.90
11532;DHT22;5822;51.000;5.874;2024-03-08T10:52:15;11.00;99.90
11532;DHT22;5822;51.000;5.874;2024-03-08T10:54:43;11.10;99.90
11532;DHT22;5822;51.000;5.874;2024-03-08T10:57:12;11.10;99.90
11532;DHT22;5822;51.000;5.874;2024-03-08T10:59:38;11.10;99.90
11532;DHT22;5822;51.000;5.874;2024-03-08T11:02:05;11.10;99.90
11532;DHT22;5822;51.000;5.874;2024-03-08T11:04:34;11.10;99.90
11532;DHT22;5822;51.000;5.874;2024-03-08T11:07:02;11.20;99.90
11532;DHT22;5822;51.000;5.874;2024-03-08T11:09:36;11.20;99.90
11532;DHT22;5822;51.000;5.874;2024-03-08T11:12:23;11.30;99.90
11532;DHT22;5822;51.000;5.874;2024-03-08T11:14:58;11.30;99.90
11532;DHT22;5822;51.000;5.874;2024-03-08T11:17:39;11.40;99.90
11532;DHT22;5822;51.000;5.874;2024-03-08T11:20:11;11.40;99.90
11532;DHT22;5822;51.000;5.874;2024-03-08T11:22:55;11.50;99.90
11532;DHT22;5822;51.000;5.874;2024-03-08T11:28:24;11.50;99.90
11532;DHT22;5822;51.000;5.874;2024-03-08T11:33:30;11.40;99.90
11532;DHT22;5822;51.000;5.874;2024-03-08T11:36:10;11.40;99.90
11532;DHT22;5822;51.000;5.874;2024-03-08T11:38:43;11.60;99.90
11532;DHT22;5822;51.000;5.874;2024-03-08T11:41:09;11.70;99.90
11532;DHT22;5822;51.000;5.874;2024-03-08T11:43:42;11.70;99.90
11532;DHT22;5822;51.000;5.874;2024-03-08T11:46:09;11.80;99.90
11532;DHT22;5822;51.000;5.874;2024-03-08T11:48:35;11.80;99.90
11532;DHT22;5822;51.000;5.874;2024-03-08T11:51:03;11.80;99.90
11532;DHT22;5822;51.000;5.874;2024-03-08T11:53:30;11.80;99.90
11532;DHT22;5822;51.000;5.874;2024-03-08T11:56:09;11.80;99.90
11532;DHT22;5822;51.000;5.874;2024-03-08T11:58:36;11.80;99.90
11532;DHT22;5822;51.000;5.874;2024-03-08T12:01:09;11.80;99.90
11532;DHT22;5822;51.000;5.874;2024-03-08T12:03:40;11.80;99.90
11532;DHT22;5822;51.000;5.874;2024-03-08T12:06:10;11.90;99.90
11532;DHT22;5822;51.000;5.874;2024-03-08T12:08:36;11.90;99.90
11532;DHT22;5822;51.000;5.874;2024-03-08T12:11:04;11.90;99.90
11532;DHT22;5822;51.000;5.874;2024-03-08T12:13:31;12.10;99.90
11532;DHT22;5822;51.000;5.874;2024-03-08T12:15:58;12.10;99.90
11532;DHT22;5822;51.000;5.874;2024-03-08T12:18:25;12.10;99.90
11532;DHT22;5822;51.000;5.874;2024-03-08T12:20:54;12.10;99.90
11532;DHT22;5822;51.000;5.874;2024-03-08T12:23:29;12.10;99.90
11532;DHT22;5822;51.000;5.874;2024-03-08T12:25:54;12.10;99.90
11532;DHT22;5822;51.000;5.874;2024-03-08T12:28:20;12.20;99.90
11532;DHT22;5822;51.000;5.874;2024-03-08T12:30:51;12.20;99.90
11532;DHT22;5822;51.000;5.874;2024-03-08T12:33:24;12.30;99.90
11532;DHT22;5822;51.000;5.874;2024-03-08T12:35:54;12.30;99.90
11532;DHT22;5822;51.000;5.874;2024-03-08T12:38:21;12.20;99.90
11532;DHT22;5822;51.000;5.874;2024-03-08T12:40:59;12.30;99.90
11532;DHT22;5822;51.000;5.874;2024-03-08T12:43:25;12.30;99.90
11532;DHT22;5822;51.000;5.874;2024-03-08T12:45:51;12.30;99.90
11532;DHT22;5822;51.000;5.874;2024-03-08T12:48:18;12.30;99.90
11532;DHT22;5822;51.000;5.874;2024-03-08T12:50:46;12.30;99.90
11532;DHT22;5822;51.000;5.874;2024-03-08T12:53:13;12.20;99.90
11532;DHT22;5822;51.000;5.874;2024-03-08T12:55:39;12.20;99.90
11532;DHT22;5822;51.000;5.874;2024-03-08T12:58:06;12.30;99.90
11532;DHT22;5822;51.000;5.874;2024-03-08T13:00:35;12.30;99.90
11532;DHT22;5822;51.000;5.874;2024-03-08T13:03:02;12.30;99.90
11532;DHT22;5822;51.000;5.874;2024-03-08T13:05:28;12.30;99.90
11532;DHT22;5822;51.000;5.874;2024-03-08T13:07:55;12.40;99.90
11532;DHT22;5822;51.000;5.874;2024-03-08T13:10:22;12.40;99.90
11532;DHT22;5822;51.000;5.874;2024-03-08T13:12:48;12.30;99.90
11532;DHT22;5822;51.000;5.874;2024-03-08T13:15:14;12.40;99.90
11532;DHT22;5822;51.000;5.874;2024-03-08T13:17:49;12.40;99.90
11532;DHT22;5822;51.000;5.874;2024-03-08T13:20:15;12.50;99.90
11532;DHT22;5822;51.000;5.874;2024-03-08T13:22:48;12.50;99.90
11532;DHT22;5822;51.000;5.874;2024-03-08T13:25:13;12.50;99.90
11532;DHT22;5822;51.000;5.874;2024-03-08T13:27:42;12.50;99.90
11532;DHT22;5822;51.000;5.874;2024-03-08T13:30:09;12.50;99.90
11532;DHT22;5822;51.000;5.874;2024-03-08T13:32:42;12.50;99.90
11532;DHT22;5822;51.000;5.874;2024-03-08T13:35:11;12.50;99.90
11532;DHT22;5822;51.000;5.874;2024-03-08T13:37:40;12.50;99.90
11532;DHT22;5822;51.000;5.874;2024-03-08T13:40:06;12.50;99.90
11532;DHT22;5822;51.000;5.874;2024-03-08T13:42:42;12.50;99.90
11532;DHT22;5822;51.000;5.874;2024-03-08T13:45:11;12.60;99.90
11532;DHT22;5822;51.000;5.874;2024-03-08T13:47:37;12.50;99.90
11532;DHT22;5822;51.000;5.874;2024-03-08T13:50:05;12.60;99.90
11532;DHT22;5822;51.000;5.874;2024-03-08T13:52:33;12.60;99.90
11532;DHT22;5822;51.000;5.874;2024-03-08T13:55:00;12.70;99.90
11532;DHT22;5822;51.000;5.874;2024-03-08T13:57:26;12.80;99.90
11532;DHT22;5822;51.000;5.874;2024-03-08T13:59:53;12.80;99.90
11532;DHT22;5822;51.000;5.874;2024-03-08T14:02:19;12.90;99.90
11532;DHT22;5822;51.000;5.874;2024-03-08T14:04:44;13.00;99.90
11532;DHT22;5822;51.000;5.874;2024-03-08T14:07:10;13.00;99.90
11532;DHT22;5822;51.000;5.874;2024-03-08T14:09:36;13.10;99.90
11532;DHT22;5822;51.000;5.874;2024-03-08T14:12:05;13.10;99.90
11532;DHT22;5822;51.000;5.874;2024-03-08T14:14:34;13.20;99.90
11532;DHT22;5822;51.000;5.874;2024-03-08T14:17:03;13.30;99.90
11532;DHT22;5822;51.000;5.874;2024-03-08T14:19:29;13.30;99.90
11532;DHT22;5822;51.000;5.874;2024-03-08T14:22:02;13.40;99.90
11532;DHT22;5822;51.000;5.874;2024-03-08T14:24:30;13.40;99.90
11532;DHT22;5822;51.000;5.874;2024-03-08T14:26:57;13.40;99.90
11532;DHT22;5822;51.000;5.874;2024-03-08T14:29:25;13.50;99.90
11532;DHT22;5822;51.000;5.874;2024-03-08T14:31:55;13.60;99.90
11532;DHT22;5822;51.000;5.874;2024-03-08T14:34:27;13.60;99.90
11532;DHT22;5822;51.000;5.874;2024-03-08T14:36:55;13.60;99.90
11532;DHT22;5822;51.000;5.874;2024-03-08T14:39:20;13.60;99.90
11532;DHT22;5822;51.000;5.874;2024-03-08T14:41:48;13.70;99.90
11532;DHT22;5822;51.000;5.874;2024-03-08T14:44:14;13.70;99.90
11532;DHT22;5822;51.000;5.874;2024-03-08T14:46:40;13.70;99.90
11532;DHT22;5822;51.000;5.874;2024-03-08T14:49:07;13.70;99.90
11532;DHT22;5822;51.000;5.874;2024-03-08T14:51:33;13.80;99.90
11532;DHT22;5822;51.000;5.874;2024-03-08T14:54:00;13.80;99.90
11532;DHT22;5822;51.000;5.874;2024-03-08T14:56:26;13.80;99.90
11532;DHT22;5822;51.000;5.874;2024-03-08T14:58:52;13.80;99.90
11532;DHT22;5822;51.000;5.874;2024-03-08T15:01:19;13.90;99.90
11532;DHT22;5822;51.000;5.874;2024-03-08T15:03:47;13.90;99.90
11532;DHT22;5822;51.000;5.874;2024-03-08T15:06:16;13.90;99.90
11532;DHT22;5822;51.000;5.874;2024-03-08T15:08:47;13.90;99.90
11532;DHT22;5822;51.000;5.874;2024-03-08T15:11:13;13.90;99.90
11532;DHT22;5822;51.000;5.874;2024-03-08T15:13:47;13.90;99.90
11532;DHT22;5822;51.000;5.874;2024-03-08T15:16:17;13.90;99.90
11532;DHT22;5822;51.000;5.874;2024-03-08T15:18:44;14.00;99.90
11532;DHT22;5822;51.000;5.874;2024-03-08T15:21:14;13.90;99.90
11532;DHT22;5822;51.000;5.874;2024-03-08T15:23:47;13.90;99.90
11532;DHT22;5822;51.000;5.874;2024-03-08T15:26:18;13.90;99.90
11532;DHT22;5822;51.000;5.874;2024-03-08T15:28:44;13.90;99.90
11532;DHT22;5822;51.000;5.874;2024-03-08T15:31:19;13.90;99.90
11532;DHT22;5822;51.000;5.874;2024-03-08T15:33:46;13.90;99.90
11532;DHT22;5822;51.000;5.874;2024-03-08T15:36:20;13.80;99.90
11532;DHT22;5822;51.000;5.874;2024-03-08T15:38:47;13.80;99.90
11532;DHT22;5822;51.000;5.874;2024-03-08T15:41:13;13.70;99.90
11532;DHT22;5822;51.000;5.874;2024-03-08T15:43:39;13.70;99.90
11532;DHT22;5822;51.000;5.874;2024-03-08T15:46:09;13.70;99.90
11532;DHT22;5822;51.000;5.874;2024-03-08T15:48:36;13.60;99.90
11532;DHT22;5822;51.000;5.874;2024-03-08T15:51:03;13.60;99.90
11532;DHT22;5822;51.000;5.874;2024-03-08T15:53:34;13.60;99.90
11532;DHT22;5822;51.000;5.874;2024-03-08T15:56:01;13.50;99.90
11532;DHT22;5822;51.000;5.874;2024-03-08T15:58:28;13.50;99.90
11532;DHT22;5822;51.000;5.874;2024-03-08T16:00:56;13.40;99.90
11532;DHT22;5822;51.000;5.874;2024-03-08T16:03:22;13.50;99.90
11532;DHT22;5822;51.000;5.874;2024-03-08T16:05:48;13.50;99.90
11532;DHT22;5822;51.000;5.874;2024-03-08T16:08:15;13.50;99.90
11532;DHT22;5822;51.000;5.874;2024-03-08T16:10:43;13.40;99.90
11532;DHT22;5822;51.000;5.874;2024-03-08T16:13:20;13.40;99.90
11532;DHT22;5822;51.000;5.874;2024-03-08T16:15:51;13.40;99.90
11532;DHT22;5822;51.000;5.874;2024-03-08T16:18:18;13.30;99.90